sensor_id;sensor_type;location;lat;lon;timestamp;pressure;altitude;pressure_sealevel;temperature;humidity
48015;BME280;33780;51.034;7.120;2023-04-08T00:02:22;101322.72;;;10.62;78.22
48015;BME280;33780;51.034;7.120;2023-04-08T00:04:48;101324.56;;;10.62;78.30
48015;BME280;33780;51.034;7.120;2023-04-08T00:07:13;101327.22;;;10.62;78.06
48015;BME280;33780;51.034;7.120;2023-04-08T00:09:38;101327.22;;;10.62;78.35
48015;BME280;33780;51.034;7.120;2023-04-08T00:12:03;101337.09;;;10.61;78.19
48015;BME280;33780;51.034;7.120;2023-04-08T00:14:29;101332.59;;;10.62;77.85
48015;BME280;33780;51.034;7.120;2023-04-08T00:16:54;101330.88;;;10.61;77.87
48015;BME280;33780;51.034;7.120;2023-04-08T00:19:20;101328.19;;;10.61;78.11
48015;BME280;33780;51.034;7.120;2023-04-08T00:21:45;101326.38;;;10.61;78.26
48015;BME280;33780;51.034;7.120;2023-04-08T00:24:11;101333.56;;;10.61;78.06
48015;BME280;33780;51.034;7.120;2023-04-08T00:26:37;101338.91;;;10.61;78.20
48015;BME280;33780;51.034;7.120;2023-04-08T00:29:02;101331.72;;;10.61;78.17
48015;BME280;33780;51.034;7.120;2023-04-08T00:31:27;101325.53;;;10.61;78.32
48015;BME280;33780;51.034;7.120;2023-04-08T00:33:52;101330.03;;;10.60;78.55
48015;BME280;33780;51.034;7.120;2023-04-08T00:36:18;101330.03;;;10.60;78.21
48015;BME280;33780;51.034;7.120;2023-04-08T00:38:43;101334.41;;;10.61;78.56
48015;BME280;33780;51.034;7.120;2023-04-08T00:41:08;101337.09;;;10.61;78.49
48015;BME280;33780;51.034;7.120;2023-04-08T00:43:34;101337.94;;;10.62;78.34
48015;BME280;33780;51.034;7.120;2023-04-08T00:45:59;101329.91;;;10.62;78.31
48015;BME280;33780;51.034;7.120;2023-04-08T00:48:25;101334.41;;;10.61;78.83
48015;BME280;33780;51.034;7.120;2023-04-08T00:50:50;101329.19;;;10.59;78.50
48015;BME280;33780;51.034;7.120;2023-04-08T00:53:17;101335.47;;;10.58;78.30
48015;BME280;33780;51.034;7.120;2023-04-08T00:55:43;101339.00;;;10.59;78.49
48015;BME280;33780;51.034;7.120;2023-04-08T00:58:08;101336.31;;;10.59;78.46
48015;BME280;33780;51.034;7.120;2023-04-08T01:00:35;101336.31;;;10.59;78.74
48015;BME280;33780;51.034;7.120;2023-04-08T01:03:15;101341.66;;;10.59;78.80
48015;BME280;33780;51.034;7.120;2023-04-08T01:08:09;101339.13;;;10.57;78.98
48015;BME280;33780;51.034;7.120;2023-04-08T01:10:36;101350.78;;;10.56;78.95
48015;BME280;33780;51.034;7.120;2023-04-08T01:13:04;101345.44;;;10.56;78.79
48015;BME280;33780;51.034;7.120;2023-04-08T01:15:34;101348.13;;;10.56;79.17
48015;BME280;33780;51.034;7.120;2023-04-08T01:18:05;101348.22;;;10.55;79.09
48015;BME280;33780;51.034;7.120;2023-04-08T01:20:31;101344.69;;;10.54;79.05
48015;BME280;33780;51.034;7.120;2023-04-08T01:25:32;101348.34;;;10.53;79.10
48015;BME280;33780;51.034;7.120;2023-04-08T01:28:12;101345.78;;;10.52;79.14
48015;BME280;33780;51.034;7.120;2023-04-08T01:30:40;101345.69;;;10.53;79.27
48015;BME280;33780;51.034;7.120;2023-04-08T01:33:06;101346.66;;;10.52;79.17
48015;BME280;33780;51.034;7.120;2023-04-08T01:35:34;101352.00;;;10.52;79.30
48015;BME280;33780;51.034;7.120;2023-04-08T01:38:00;101343.97;;;10.52;79.09
48015;BME280;33780;51.034;7.120;2023-04-08T01:40:27;101349.31;;;10.52;79.08
48015;BME280;33780;51.034;7.120;2023-04-08T01:42:55;101347.50;;;10.53;79.11
48015;BME280;33780;51.034;7.120;2023-04-08T01:45:22;101344.81;;;10.53;78.84
48015;BME280;33780;51.034;7.120;2023-04-08T01:47:48;101348.34;;;10.53;79.24
48015;BME280;33780;51.034;7.120;2023-04-08T01:50:15;101350.19;;;10.53;79.24
48015;BME280;33780;51.034;7.120;2023-04-08T01:52:45;101350.19;;;10.53;79.05
48015;BME280;33780;51.034;7.120;2023-04-08T01:55:11;101349.31;;;10.52;79.08
48015;BME280;33780;51.034;7.120;2023-04-08T01:57:37;101355.53;;;10.53;79.05
48015;BME280;33780;51.034;7.120;2023-04-08T02:00:08;101352.00;;;10.52;79.47
48015;BME280;33780;51.034;7.120;2023-04-08T02:02:39;101359.19;;;10.52;79.65
48015;BME280;33780;51.034;7.120;2023-04-08T02:05:06;101357.34;;;10.52;79.11
48015;BME280;33780;51.034;7.120;2023-04-08T02:07:32;101356.63;;;10.50;79.53
48015;BME280;33780;51.034;7.120;2023-04-08T02:09:57;101351.38;;;10.49;79.30
48015;BME280;33780;51.034;7.120;2023-04-08T02:12:23;101358.78;;;10.45;79.67
48015;BME280;33780;51.034;7.120;2023-04-08T02:14:49;101357.22;;;10.43;79.98
48015;BME280;33780;51.034;7.120;2023-04-08T02:17:31;101354.72;;;10.40;79.57
48015;BME280;33780;51.034;7.120;2023-04-08T02:19:59;101358.38;;;10.39;80.13
48015;BME280;33780;51.034;7.120;2023-04-08T02:22:37;101360.19;;;10.38;79.63
48015;BME280;33780;51.034;7.120;2023-04-08T02:25:07;101360.31;;;10.37;79.98
48015;BME280;33780;51.034;7.120;2023-04-08T02:27:35;101358.50;;;10.37;79.91
48015;BME280;33780;51.034;7.120;2023-04-08T02:30:05;101352.28;;;10.37;79.72
48015;BME280;33780;51.034;7.120;2023-04-08T02:32:32;101354.84;;;10.38;79.84
48015;BME280;33780;51.034;7.120;2023-04-08T02:35:00;101360.09;;;10.40;79.46
48015;BME280;33780;51.034;7.120;2023-04-08T02:37:27;101359.13;;;10.41;79.78
48015;BME280;33780;51.034;7.120;2023-04-08T02:39:52;101358.19;;;10.42;79.43
48015;BME280;33780;51.034;7.120;2023-04-08T02:42:17;101358.91;;;10.44;79.51
48015;BME280;33780;51.034;7.120;2023-04-08T02:44:43;101358.06;;;10.43;79.38
48015;BME280;33780;51.034;7.120;2023-04-08T02:47:08;101359.88;;;10.43;79.87
48015;BME280;33780;51.034;7.120;2023-04-08T02:49:33;101365.97;;;10.45;79.62
48015;BME280;33780;51.034;7.120;2023-04-08T02:52:02;101359.66;;;10.46;79.63
48015;BME280;33780;51.034;7.120;2023-04-08T02:54:27;101365.00;;;10.46;79.73
48015;BME280;33780;51.034;7.120;2023-04-08T02:56:52;101371.19;;;10.46;79.86
48015;BME280;33780;51.034;7.120;2023-04-08T02:59:17;101365.84;;;10.46;80.07
48015;BME280;33780;51.034;7.120;2023-04-08T03:01:43;101363.19;;;10.46;79.93
48015;BME280;33780;51.034;7.120;2023-04-08T03:04:08;101377.41;;;10.47;79.97
48015;BME280;33780;51.034;7.120;2023-04-08T03:06:33;101370.34;;;10.46;79.57
48015;BME280;33780;51.034;7.120;2023-04-08T03:08:59;101369.50;;;10.45;79.78
48015;BME280;33780;51.034;7.120;2023-04-08T03:11:24;101370.34;;;10.46;79.59
48015;BME280;33780;51.034;7.120;2023-04-08T03:13:50;101372.19;;;10.45;79.88
48015;BME280;33780;51.034;7.120;2023-04-08T03:16:15;101369.50;;;10.45;80.63
48015;BME280;33780;51.034;7.120;2023-04-08T03:18:40;101371.31;;;10.45;80.07
48015;BME280;33780;51.034;7.120;2023-04-08T03:21:06;101370.47;;;10.44;79.82
48015;BME280;33780;51.034;7.120;2023-04-08T03:23:31;101370.47;;;10.44;79.89
48015;BME280;33780;51.034;7.120;2023-04-08T03:25:56;101375.94;;;10.43;80.04
48015;BME280;33780;51.034;7.120;2023-04-08T03:28:21;101374.22;;;10.42;79.96
48015;BME280;33780;51.034;7.120;2023-04-08T03:30:48;101374.22;;;10.42;79.98
48015;BME280;33780;51.034;7.120;2023-04-08T03:33:13;101378.72;;;10.41;79.71
48015;BME280;33780;51.034;7.120;2023-04-08T03:35:38;101378.81;;;10.40;79.93
48015;BME280;33780;51.034;7.120;2023-04-08T03:38:03;101383.31;;;10.39;79.71
48015;BME280;33780;51.034;7.120;2023-04-08T03:40:29;101377.22;;;10.37;79.57
48015;BME280;33780;51.034;7.120;2023-04-08T03:42:54;101378.19;;;10.36;79.50
48015;BME280;33780;51.034;7.120;2023-04-08T03:45:20;101376.59;;;10.34;79.76
48015;BME280;33780;51.034;7.120;2023-04-08T03:47:45;101376.84;;;10.31;79.42
48015;BME280;33780;51.034;7.120;2023-04-08T03:50:10;101386.81;;;10.28;79.65
48015;BME280;33780;51.034;7.120;2023-04-08T03:52:35;101389.72;;;10.25;79.19
48015;BME280;33780;51.034;7.120;2023-04-08T03:55:01;101385.53;;;10.21;79.26
48015;BME280;33780;51.034;7.120;2023-04-08T03:57:26;101386.59;;;10.19;79.34
48015;BME280;33780;51.034;7.120;2023-04-08T03:59:52;101383.28;;;10.15;78.75
48015;BME280;33780;51.034;7.120;2023-04-08T04:02:17;101386.19;;;10.12;78.84
48015;BME280;33780;51.034;7.120;2023-04-08T04:04:42;101379.38;;;10.08;78.69
48015;BME280;33780;51.034;7.120;2023-04-08T04:07:08;101383.22;;;10.04;78.63
48015;BME280;33780;51.034;7.120;2023-04-08T04:09:33;101385.38;;;9.99;78.37
48015;BME280;33780;51.034;7.120;2023-04-08T04:11:59;101384.84;;;9.94;78.19
48015;BME280;33780;51.034;7.120;2023-04-08T04:14:24;101386.06;;;9.90;77.88
48015;BME280;33780;51.034;7.120;2023-04-08T04:16:50;101394.28;;;9.87;78.14
48015;BME280;33780;51.034;7.120;2023-04-08T04:19:15;101390.13;;;9.83;77.73
48015;BME280;33780;51.034;7.120;2023-04-08T04:21:42;101388.75;;;9.77;77.47
48015;BME280;33780;51.034;7.120;2023-04-08T04:24:07;101391.75;;;9.73;77.41
48015;BME280;33780;51.034;7.120;2023-04-08T04:26:33;101400.00;;;9.69;77.49
48015;BME280;33780;51.034;7.120;2023-04-08T04:28:58;101403.81;;;9.65;77.50
48015;BME280;33780;51.034;7.120;2023-04-08T04:31:24;101413.03;;;9.61;77.32
48015;BME280;33780;51.034;7.120;2023-04-08T04:33:52;101409.84;;;9.56;77.08
48015;BME280;33780;51.034;7.120;2023-04-08T04:36:17;101412.72;;;9.53;76.71
48015;BME280;33780;51.034;7.120;2023-04-08T04:38:44;101414.75;;;9.50;76.97
48015;BME280;33780;51.034;7.120;2023-04-08T04:41:09;101414.84;;;9.48;77.06
48015;BME280;33780;51.034;7.120;2023-04-08T04:43:35;101424.69;;;9.48;77.09
48015;BME280;33780;51.034;7.120;2023-04-08T04:46:03;101415.94;;;9.46;77.17
48015;BME280;33780;51.034;7.120;2023-04-08T04:48:33;101423.09;;;9.45;76.96
48015;BME280;33780;51.034;7.120;2023-04-08T04:50:59;101415.94;;;9.46;77.26
48015;BME280;33780;51.034;7.120;2023-04-08T04:53:31;101412.41;;;9.45;77.25
48015;BME280;33780;51.034;7.120;2023-04-08T04:55:57;101426.59;;;9.46;77.22
48015;BME280;33780;51.034;7.120;2023-04-08T04:58:22;101423.09;;;9.45;77.28
48015;BME280;33780;51.034;7.120;2023-04-08T05:00:48;101421.25;;;9.46;77.17
48015;BME280;33780;51.034;7.120;2023-04-08T05:03:13;101420.41;;;9.45;77.12
48015;BME280;33780;51.034;7.120;2023-04-08T05:05:38;101421.38;;;9.44;76.82
48015;BME280;33780;51.034;7.120;2023-04-08T05:08:04;101420.53;;;9.44;77.31
48015;BME280;33780;51.034;7.120;2023-04-08T05:10:31;101431.94;;;9.46;76.88
48015;BME280;33780;51.034;7.120;2023-04-08T05:12:57;101425.75;;;9.45;76.76
48015;BME280;33780;51.034;7.120;2023-04-08T05:15:22;101428.44;;;9.45;76.94
48015;BME280;33780;51.034;7.120;2023-04-08T05:17:47;101441.78;;;9.45;77.05
48015;BME280;33780;51.034;7.120;2023-04-08T05:20:12;101436.56;;;9.44;77.32
48015;BME280;33780;51.034;7.120;2023-04-08T05:22:38;101442.00;;;9.42;77.47
48015;BME280;33780;51.034;7.120;2023-04-08T05:25:04;101442.13;;;9.41;77.50
48015;BME280;33780;51.034;7.120;2023-04-08T05:27:30;101450.13;;;9.41;77.54
48015;BME280;33780;51.034;7.120;2023-04-08T05:29:55;101454.63;;;9.40;77.51
48015;BME280;33780;51.034;7.120;2023-04-08T05:32:21;101453.75;;;9.39;77.61
48015;BME280;33780;51.034;7.120;2023-04-08T05:34:46;101451.94;;;9.40;77.39
48015;BME280;33780;51.034;7.120;2023-04-08T05:37:11;101459.97;;;9.40;77.61
48015;BME280;33780;51.034;7.120;2023-04-08T05:39:37;101450.34;;;9.37;77.60
48015;BME280;33780;51.034;7.120;2023-04-08T05:42:02;101450.47;;;9.36;77.57
48015;BME280;33780;51.034;7.120;2023-04-08T05:44:28;101461.13;;;9.36;77.43
48015;BME280;33780;51.034;7.120;2023-04-08T05:46:53;101467.34;;;9.36;77.54
48015;BME280;33780;51.034;7.120;2023-04-08T05:49:20;101461.03;;;9.37;77.31
48015;BME280;33780;51.034;7.120;2023-04-08T05:51:45;101464.66;;;9.36;77.48
48015;BME280;33780;51.034;7.120;2023-04-08T05:54:11;101464.56;;;9.38;77.43
48015;BME280;33780;51.034;7.120;2023-04-08T05:56:36;101474.38;;;9.37;77.54
48015;BME280;33780;51.034;7.120;2023-04-08T05:59:01;101470.97;;;9.35;77.15
48015;BME280;33780;51.034;7.120;2023-04-08T06:01:27;101481.84;;;9.32;77.27
48015;BME280;33780;51.034;7.120;2023-04-08T06:03:52;101480.13;;;9.31;77.25
48015;BME280;33780;51.034;7.120;2023-04-08T06:06:20;101484.63;;;9.31;77.54
48015;BME280;33780;51.034;7.120;2023-04-08T06:08:45;101485.47;;;9.31;77.45
48015;BME280;33780;51.034;7.120;2023-04-08T06:11:11;101492.53;;;9.32;77.50
48015;BME280;33780;51.034;7.120;2023-04-08T06:13:37;101482.69;;;9.33;77.31
48015;BME280;33780;51.034;7.120;2023-04-08T06:16:28;101490.81;;;9.31;77.46
48015;BME280;33780;51.034;7.120;2023-04-08T06:18:54;101487.19;;;9.32;77.56
48015;BME280;33780;51.034;7.120;2023-04-08T06:21:22;101487.28;;;9.31;77.64
48015;BME280;33780;51.034;7.120;2023-04-08T06:23:50;101476.72;;;9.29;77.58
48015;BME280;33780;51.034;7.120;2023-04-08T06:26:16;101485.47;;;9.31;77.96
48015;BME280;33780;51.034;7.120;2023-04-08T06:28:42;101493.47;;;9.31;77.89
48015;BME280;33780;51.034;7.120;2023-04-08T06:31:07;101492.44;;;9.34;77.82
48015;BME280;33780;51.034;7.120;2023-04-08T06:33:35;101498.53;;;9.36;77.50
48015;BME280;33780;51.034;7.120;2023-04-08T06:36:02;101501.94;;;9.38;77.68
48015;BME280;33780;51.034;7.120;2023-04-08T06:38:28;101503.88;;;9.36;77.82
48015;BME280;33780;51.034;7.120;2023-04-08T06:40:53;101503.13;;;9.34;77.60
48015;BME280;33780;51.034;7.120;2023-04-08T06:43:24;101505.81;;;9.34;77.66
48015;BME280;33780;51.034;7.120;2023-04-08T06:45:52;101504.91;;;9.33;77.82
48015;BME280;33780;51.034;7.120;2023-04-08T06:48:18;101512.00;;;9.34;77.68
48015;BME280;33780;51.034;7.120;2023-04-08T06:50:43;101508.47;;;9.34;77.82
48015;BME280;33780;51.034;7.120;2023-04-08T06:53:09;101520.00;;;9.34;77.65
48015;BME280;33780;51.034;7.120;2023-04-08T06:55:37;101516.56;;;9.32;77.86
48015;BME280;33780;51.034;7.120;2023-04-08T06:58:03;101516.56;;;9.32;78.13
48015;BME280;33780;51.034;7.120;2023-04-08T07:00:28;101516.66;;;9.31;77.96
48015;BME280;33780;51.034;7.120;2023-04-08T07:02:56;101520.00;;;9.34;77.89
48015;BME280;33780;51.034;7.120;2023-04-08T07:05:22;101519.81;;;9.37;77.89
48015;BME280;33780;51.034;7.120;2023-04-08T07:07:47;101522.16;;;9.42;77.79
48015;BME280;33780;51.034;7.120;2023-04-08T07:10:13;101521.81;;;9.47;77.70
48015;BME280;33780;51.034;7.120;2023-04-08T07:12:44;101516.38;;;9.48;77.51
48015;BME280;33780;51.034;7.120;2023-04-08T07:15:09;101527.81;;;9.50;77.62
48015;BME280;33780;51.034;7.120;2023-04-08T07:17:35;101521.63;;;9.50;77.51
48015;BME280;33780;51.034;7.120;2023-04-08T07:20:01;101531.44;;;9.49;77.46
48015;BME280;33780;51.034;7.120;2023-04-08T07:22:26;101534.88;;;9.51;77.40
48015;BME280;33780;51.034;7.120;2023-04-08T07:24:51;101531.34;;;9.51;77.45
48015;BME280;33780;51.034;7.120;2023-04-08T07:27:17;101528.59;;;9.52;77.57
48015;BME280;33780;51.034;7.120;2023-04-08T07:29:45;101534.78;;;9.53;77.50
48015;BME280;33780;51.034;7.120;2023-04-08T07:32:10;101540.03;;;9.54;77.33
48015;BME280;33780;51.034;7.120;2023-04-08T07:34:36;101543.56;;;9.55;77.52
48015;BME280;33780;51.034;7.120;2023-04-08T07:37:04;101541.72;;;9.55;77.73
48015;BME280;33780;51.034;7.120;2023-04-08T07:39:29;101540.56;;;9.59;77.45
48015;BME280;33780;51.034;7.120;2023-04-08T07:41:55;101545.69;;;9.62;77.60
48015;BME280;33780;51.034;7.120;2023-04-08T07:44:20;101546.53;;;9.63;77.78
48015;BME280;33780;51.034;7.120;2023-04-08T07:46:46;101553.59;;;9.64;77.97
48015;BME280;33780;51.034;7.120;2023-04-08T07:49:23;101554.34;;;9.66;78.15
48015;BME280;33780;51.034;7.120;2023-04-08T07:52:03;101559.47;;;9.69;78.46
48015;BME280;33780;51.034;7.120;2023-04-08T07:54:31;101557.56;;;9.71;77.96
48015;BME280;33780;51.034;7.120;2023-04-08T07:57:00;101560.03;;;9.74;78.11
48015;BME280;33780;51.034;7.120;2023-04-08T07:59:26;101562.50;;;9.77;78.10
48015;BME280;33780;51.034;7.120;2023-04-08T08:01:52;101559.50;;;9.82;78.06
48015;BME280;33780;51.034;7.120;2023-04-08T08:04:17;101565.47;;;9.85;78.11
48015;BME280;33780;51.034;7.120;2023-04-08T08:06:43;101567.97;;;9.88;78.10
48015;BME280;33780;51.034;7.120;2023-04-08T08:09:08;101566.88;;;9.91;78.37
48015;BME280;33780;51.034;7.120;2023-04-08T08:11:33;101566.88;;;9.91;78.37
48015;BME280;33780;51.034;7.120;2023-04-08T08:13:59;101572.13;;;9.92;78.30
48015;BME280;33780;51.034;7.120;2023-04-08T08:16:27;101570.31;;;9.93;78.43
48015;BME280;33780;51.034;7.120;2023-04-08T08:18:56;101578.09;;;9.96;78.75
48015;BME280;33780;51.034;7.120;2023-04-08T08:21:25;101580.69;;;9.97;78.40
48015;BME280;33780;51.034;7.120;2023-04-08T08:23:56;101586.78;;;9.99;78.86
48015;BME280;33780;51.034;7.120;2023-04-08T08:26:22;101583.03;;;10.02;78.85
48015;BME280;33780;51.034;7.120;2023-04-08T08:28:47;101585.41;;;10.07;78.47
48015;BME280;33780;51.034;7.120;2023-04-08T08:31:13;101590.53;;;10.10;78.27
48015;BME280;33780;51.034;7.120;2023-04-08T08:33:41;101586.78;;;10.12;78.49
48015;BME280;33780;51.034;7.120;2023-04-08T08:36:06;101586.34;;;10.18;78.48
48015;BME280;33780;51.034;7.120;2023-04-08T08:38:32;101598.66;;;10.21;78.35
48015;BME280;33780;51.034;7.120;2023-04-08T08:40:59;101588.72;;;10.23;78.59
48015;BME280;33780;51.034;7.120;2023-04-08T08:43:26;101588.63;;;10.24;78.50
48015;BME280;33780;51.034;7.120;2023-04-08T08:45:54;101591.31;;;10.24;78.54
48015;BME280;33780;51.034;7.120;2023-04-08T08:48:22;101594.94;;;10.23;78.55
48015;BME280;33780;51.034;7.120;2023-04-08T08:50:48;101596.75;;;10.23;78.51
48015;BME280;33780;51.034;7.120;2023-04-08T08:53:13;101595.88;;;10.22;78.24
48015;BME280;33780;51.034;7.120;2023-04-08T08:55:39;101588.72;;;10.23;78.26
48015;BME280;33780;51.034;7.120;2023-04-08T08:58:05;101589.28;;;10.28;78.28
48015;BME280;33780;51.034;7.120;2023-04-08T09:00:38;101585.28;;;10.34;78.29
48015;BME280;33780;51.034;7.120;2023-04-08T09:03:21;101593.84;;;10.39;78.48
48015;BME280;33780;51.034;7.120;2023-04-08T09:05:52;101590.13;;;10.41;78.54
48015;BME280;33780;51.034;7.120;2023-04-08T09:08:28;101590.84;;;10.43;78.14
48015;BME280;33780;51.034;7.120;2023-04-08T09:10:55;101602.31;;;10.45;78.04
48015;BME280;33780;51.034;7.120;2023-04-08T09:13:22;101603.78;;;10.49;78.40
48015;BME280;33780;51.034;7.120;2023-04-08T09:18:31;101606.38;;;10.38;77.79
48015;BME280;33780;51.034;7.120;2023-04-08T09:21:01;101600.59;;;10.44;77.72
48015;BME280;33780;51.034;7.120;2023-04-08T09:23:42;101591.66;;;10.56;77.98
48015;BME280;33780;51.034;7.120;2023-04-08T09:26:10;101603.97;;;10.59;76.76
48015;BME280;33780;51.034;7.120;2023-04-08T09:28:36;101602.47;;;10.68;77.22
48015;BME280;33780;51.034;7.120;2023-04-08T09:31:22;101607.91;;;10.79;77.21
48015;BME280;33780;51.034;7.120;2023-04-08T09:33:49;101613.56;;;10.87;77.14
48015;BME280;33780;51.034;7.120;2023-04-08T09:36:16;101609.44;;;10.94;76.92
48015;BME280;33780;51.034;7.120;2023-04-08T09:38:44;101617.91;;;11.01;76.86
48015;BME280;33780;51.034;7.120;2023-04-08T09:41:13;101613.69;;;11.09;76.23
48015;BME280;33780;51.034;7.120;2023-04-08T09:44:04;101603.09;;;11.08;75.06
48015;BME280;33780;51.034;7.120;2023-04-08T09:49:28;101613.56;;;11.11;73.86
48015;BME280;33780;51.034;7.120;2023-04-08T09:54:58;101610.34;;;11.18;73.55
48015;BME280;33780;51.034;7.120;2023-04-08T09:57:51;101603.31;;;11.29;74.57
48015;BME280;33780;51.034;7.120;2023-04-08T10:00:21;101602.75;;;11.36;74.74
48015;BME280;33780;51.034;7.120;2023-04-08T10:05:21;101602.78;;;11.47;74.15
48015;BME280;33780;51.034;7.120;2023-04-08T10:07:47;101606.00;;;11.53;74.16
48015;BME280;33780;51.034;7.120;2023-04-08T10:10:13;101601.97;;;11.58;73.54
48015;BME280;33780;51.034;7.120;2023-04-08T10:12:39;101596.16;;;11.64;72.96
48015;BME280;33780;51.034;7.120;2023-04-08T10:15:32;101599.22;;;11.71;71.96
48015;BME280;33780;51.034;7.120;2023-04-08T10:23:01;101611.09;;;11.79;68.23
48015;BME280;33780;51.034;7.120;2023-04-08T10:25:33;101613.66;;;11.81;71.12
48015;BME280;33780;51.034;7.120;2023-04-08T10:28:00;101619.13;;;11.79;70.17
48015;BME280;33780;51.034;7.120;2023-04-08T10:32:56;101607.88;;;11.74;69.99
48015;BME280;33780;51.034;7.120;2023-04-08T10:35:37;101609.59;;;11.75;69.91
48015;BME280;33780;51.034;7.120;2023-04-08T10:38:05;101620.00;;;11.80;70.03
48015;BME280;33780;51.034;7.120;2023-04-08T10:40:35;101617.84;;;11.85;70.22
48015;BME280;33780;51.034;7.120;2023-04-08T10:45:33;101615.16;;;11.85;65.33
48015;BME280;33780;51.034;7.120;2023-04-08T10:48:18;101611.50;;;11.86;64.80
48015;BME280;33780;51.034;7.120;2023-04-08T10:50:58;101613.41;;;11.84;65.58
48015;BME280;33780;51.034;7.120;2023-04-08T10:53:31;101605.63;;;11.81;65.20
48015;BME280;33780;51.034;7.120;2023-04-08T10:56:11;101601.22;;;11.80;65.43
48015;BME280;33780;51.034;7.120;2023-04-08T10:58:47;101606.72;;;11.78;65.00
48015;BME280;33780;51.034;7.120;2023-04-08T11:01:13;101601.44;;;11.77;64.94
48015;BME280;33780;51.034;7.120;2023-04-08T11:03:38;101599.50;;;11.79;65.44
48015;BME280;33780;51.034;7.120;2023-04-08T11:06:04;101596.59;;;11.82;66.54
48015;BME280;33780;51.034;7.120;2023-04-08T11:08:33;101597.25;;;11.86;66.97
48015;BME280;33780;51.034;7.120;2023-04-08T11:11:00;101601.38;;;11.90;66.19
48015;BME280;33780;51.034;7.120;2023-04-08T11:13:26;101598.81;;;11.88;63.14
48015;BME280;33780;51.034;7.120;2023-04-08T11:15:52;101592.13;;;11.94;65.69
48015;BME280;33780;51.034;7.120;2023-04-08T11:18:19;101597.13;;;11.98;65.44
48015;BME280;33780;51.034;7.120;2023-04-08T11:20:46;101594.31;;;12.00;64.23
48015;BME280;33780;51.034;7.120;2023-04-08T11:23:12;101594.56;;;11.97;63.42
48015;BME280;33780;51.034;7.120;2023-04-08T11:25:39;101596.75;;;11.92;62.56
48015;BME280;33780;51.034;7.120;2023-04-08T11:28:05;101597.97;;;11.88;63.28
48015;BME280;33780;51.034;7.120;2023-04-08T11:30:31;101586.59;;;11.84;63.11
48015;BME280;33780;51.034;7.120;2023-04-08T11:32:57;101600.66;;;11.88;64.71
48015;BME280;33780;51.034;7.120;2023-04-08T11:35:22;101592.84;;;11.96;65.05
48015;BME280;33780;51.034;7.120;2023-04-08T11:37:48;101597.97;;;11.99;62.72
48015;BME280;33780;51.034;7.120;2023-04-08T11:40:19;101598.38;;;12.05;63.38
48015;BME280;33780;51.034;7.120;2023-04-08T11:42:45;101597.88;;;12.12;64.27
48015;BME280;33780;51.034;7.120;2023-04-08T11:45:15;101595.56;;;12.18;64.10
48015;BME280;33780;51.034;7.120;2023-04-08T11:47:42;101598.97;;;12.20;61.49
48015;BME280;33780;51.034;7.120;2023-04-08T11:50:08;101592.88;;;12.18;60.52
48015;BME280;33780;51.034;7.120;2023-04-08T11:52:51;101586.91;;;12.15;57.00
48015;BME280;33780;51.034;7.120;2023-04-08T11:55:22;101596.28;;;12.09;59.18
48015;BME280;33780;51.034;7.120;2023-04-08T11:57:48;101601.78;;;12.07;59.56
48015;BME280;33780;51.034;7.120;2023-04-08T12:00:13;101595.69;;;12.05;60.30
48015;BME280;33780;51.034;7.120;2023-04-08T12:02:39;101586.78;;;12.05;60.41
48015;BME280;33780;51.034;7.120;2023-04-08T12:05:05;101593.63;;;12.09;61.71
48015;BME280;33780;51.034;7.120;2023-04-08T12:07:30;101591.53;;;12.13;62.06
48015;BME280;33780;51.034;7.120;2023-04-08T12:09:56;101594.69;;;12.18;62.10
48015;BME280;33780;51.034;7.120;2023-04-08T12:12:21;101593.59;;;12.20;62.32
48015;BME280;33780;51.034;7.120;2023-04-08T12:14:47;101603.28;;;12.23;61.12
48015;BME280;33780;51.034;7.120;2023-04-08T12:17:12;101585.22;;;12.25;61.88
48015;BME280;33780;51.034;7.120;2023-04-08T12:19:37;101589.47;;;12.27;60.78
48015;BME280;33780;51.034;7.120;2023-04-08T12:22:02;101595.22;;;12.23;57.92
48015;BME280;33780;51.034;7.120;2023-04-08T12:24:28;101601.19;;;12.26;60.48
48015;BME280;33780;51.034;7.120;2023-04-08T12:26:53;101602.66;;;12.30;60.51
48015;BME280;33780;51.034;7.120;2023-04-08T12:29:18;101596.91;;;12.35;60.71
48015;BME280;33780;51.034;7.120;2023-04-08T12:31:43;101601.81;;;12.41;61.43
48015;BME280;33780;51.034;7.120;2023-04-08T12:34:09;101598.88;;;12.44;61.54
48015;BME280;33780;51.034;7.120;2023-04-08T12:36:34;101599.72;;;12.45;60.68
48015;BME280;33780;51.034;7.120;2023-04-08T12:39:00;101595.09;;;12.47;61.14
48015;BME280;33780;51.034;7.120;2023-04-08T12:41:25;101594.84;;;12.50;61.26
48015;BME280;33780;51.034;7.120;2023-04-08T12:43:51;101599.09;;;12.52;61.69
48015;BME280;33780;51.034;7.120;2023-04-08T12:46:16;101594.25;;;12.57;61.26
48015;BME280;33780;51.034;7.120;2023-04-08T12:48:41;101598.38;;;12.61;60.96
48015;BME280;33780;51.034;7.120;2023-04-08T12:51:09;101595.44;;;12.64;61.15
48015;BME280;33780;51.034;7.120;2023-04-08T12:53:34;101599.59;;;12.68;61.43
48015;BME280;33780;51.034;7.120;2023-04-08T12:55:59;101593.72;;;12.75;61.75
48015;BME280;33780;51.034;7.120;2023-04-08T12:58:24;101592.97;;;12.84;61.50
48015;BME280;33780;51.034;7.120;2023-04-08T13:00:50;101581.59;;;12.91;60.94
48015;BME280;33780;51.034;7.120;2023-04-08T13:03:15;101575.88;;;12.96;60.67
48015;BME280;33780;51.034;7.120;2023-04-08T13:05:42;101584.53;;;12.99;60.20
48015;BME280;33780;51.034;7.120;2023-04-08T13:08:07;101584.53;;;12.99;58.78
48015;BME280;33780;51.034;7.120;2023-04-08T13:10:32;101594.69;;;12.96;57.85
48015;BME280;33780;51.034;7.120;2023-04-08T13:12:58;101590.41;;;12.93;57.67
48015;BME280;33780;51.034;7.120;2023-04-08T13:15:23;101599.41;;;12.92;58.28
48015;BME280;33780;51.034;7.120;2023-04-08T13:17:48;101600.91;;;12.85;57.25
48015;BME280;33780;51.034;7.120;2023-04-08T13:20:14;101594.47;;;12.77;56.68